Time;durP1;ratioP1;P1;durP2;ratioP2;P2;SDS_P1;SDS_P2;PMS_P1;PMS_P2;Temp;Humidity;BMP_temperature;BMP_pressure;BME280_temperature;BME280_humidity;BME280_pressure;Samples;Min_cycle;Max_cycle;Signal;HPM_P1;HPM_P2
2023/01/24 00:02:20;;;;;;;16.95;12.57;;;4.60;99.90;;;;;;5083166;28;20115;-43
2023/01/24 00:04:46;;;;;;;17.10;12.27;;;4.60;99.90;;;;;;5083895;28;20028;-42
2023/01/24 00:07:12;;;;;;;16.60;12.80;;;4.60;99.90;;;;;;5083879;28;20028;-43
2023/01/24 00:09:37;;;;;;;18.33;13.25;;;4.60;99.90;;;;;;5083674;28;20024;-42
2023/01/24 00:12:03;;;;;;;19.27;13.75;;;4.60;99.90;;;;;;5083206;28;20047;-42
2023/01/24 00:14:29;;;;;;;17.05;13.95;;;4.60;99.90;;;;;;5083345;28;20058;-42
2023/01/24 00:16:54;;;;;;;17.30;13.85;;;4.60;99.90;;;;;;5083402;28;20032;-42
2023/01/24 00:19:20;;;;;;;17.92;13.48;;;4.60;99.90;;;;;;5083487;28;20626;-42
2023/01/24 00:21:45;;;;;;;17.70;13.50;;;4.60;99.90;;;;;;5083163;28;20295;-42
2023/01/24 00:24:11;;;;;;;17.60;13.38;;;4.60;99.90;;;;;;5083544;28;20028;-43
2023/01/24 00:26:36;;;;;;;15.55;12.27;;;4.60;99.90;;;;;;5083180;28;20031;-42
2023/01/24 00:29:02;;;;;;;17.30;13.27;;;4.60;99.90;;;;;;5082700;28;20111;-42
2023/01/24 00:31:27;;;;;;;15.55;12.48;;;4.60;99.90;;;;;;5083410;28;20059;-42
2023/01/24 00:33:53;;;;;;;16.27;12.35;;;4.60;99.90;;;;;;5083976;28;20032;-42
2023/01/24 00:36:19;;;;;;;16.27;12.13;;;4.60;99.90;;;;;;5081951;28;20426;-43
2023/01/24 00:38:44;;;;;;;16.67;12.77;;;4.50;99.90;;;;;;5082784;28;20070;-43
2023/01/24 00:41:10;;;;;;;14.95;10.90;;;4.60;99.90;;;;;;5082446;28;20019;-41
2023/01/24 00:43:35;;;;;;;13.15;10.48;;;4.50;99.90;;;;;;5082245;28;20534;-43
2023/01/24 00:46:04;;;;;;;14.63;11.32;;;4.50;99.90;;;;;;5082478;28;20660;-43
2023/01/24 00:48:30;;;;;;;13.93;11.27;;;4.50;99.90;;;;;;5082968;28;20032;-43
2023/01/24 00:50:55;;;;;;;15.35;11.27;;;4.50;99.90;;;;;;5082098;28;20089;-43
2023/01/24 00:53:21;;;;;;;13.05;10.57;;;4.50;99.90;;;;;;5082234;28;20056;-43
2023/01/24 00:55:47;;;;;;;14.18;11.10;;;4.50;99.90;;;;;;5083545;28;20020;-42
2023/01/24 00:58:13;;;;;;;14.45;10.23;;;4.50;99.90;;;;;;5081605;28;20020;-43
2023/01/24 01:00:39;;;;;;;13.88;11.02;;;4.50;99.90;;;;;;5082873;28;20035;-42
2023/01/24 01:03:15;;;;;;;15.65;12.38;;;4.60;99.90;;;;;;5082111;28;20787;-42
2023/01/24 01:05:42;;;;;;;16.20;12.52;;;4.50;99.90;;;;;;5062322;28;20585;-42
2023/01/24 01:08:08;;;;;;;15.10;11.25;;;4.50;99.90;;;;;;5077337;28;20042;-43
2023/01/24 01:10:33;;;;;;;16.45;11.80;;;4.50;99.90;;;;;;5083367;28;20044;-43
2023/01/24 01:12:59;;;;;;;16.77;11.73;;;4.50;99.90;;;;;;5081672;28;20024;-42
2023/01/24 01:15:24;;;;;;;15.10;11.20;;;4.50;99.90;;;;;;5082725;28;20024;-42
2023/01/24 01:17:50;;;;;;;15.88;11.35;;;4.50;99.90;;;;;;5082115;28;20024;-43
2023/01/24 01:20:15;;;;;;;14.75;11.23;;;4.50;99.90;;;;;;5081932;28;20125;-43
2023/01/24 01:22:41;;;;;;;15.18;11.68;;;4.50;99.90;;;;;;5082095;28;20028;-43
2023/01/24 01:25:07;;;;;;;16.73;12.80;;;4.50;99.90;;;;;;5081149;28;20020;-43
2023/01/24 01:27:32;;;;;;;15.25;11.27;;;4.50;99.90;;;;;;5081139;28;20081;-42
2023/01/24 01:29:58;;;;;;;15.95;11.50;;;4.50;99.90;;;;;;5082297;28;20035;-43
2023/01/24 01:32:24;;;;;;;16.27;12.13;;;4.50;99.90;;;;;;5082210;28;20032;-43
2023/01/24 01:34:49;;;;;;;16.17;12.57;;;4.50;99.90;;;;;;5082114;28;20557;-43
2023/01/24 01:37:15;;;;;;;15.60;11.52;;;4.50;99.90;;;;;;5081748;28;20407;-43
2023/01/24 01:39:40;;;;;;;16.00;12.07;;;4.50;99.90;;;;;;5081050;28;20119;-43
2023/01/24 01:42:06;;;;;;;16.98;11.95;;;4.50;99.90;;;;;;5081591;28;20030;-43
2023/01/24 01:44:37;;;;;;;15.32;11.68;;;4.50;99.90;;;;;;5081412;28;20070;-42
2023/01/24 01:47:24;;;;;;;14.40;10.88;;;4.50;99.90;;;;;;5060625;28;20480;-43
2023/01/24 01:49:53;;;;;;;15.05;10.70;;;4.60;99.90;;;;;;5074092;28;20079;-43
2023/01/24 01:52:22;;;;;;;14.95;11.27;;;4.50;99.90;;;;;;5081664;28;20692;-43
2023/01/24 01:54:48;;;;;;;15.75;11.63;;;4.60;99.90;;;;;;5080970;28;20158;-42
2023/01/24 01:57:19;;;;;;;15.63;12.02;;;4.60;99.90;;;;;;5081412;28;20081;-43
2023/01/24 01:59:54;;;;;;;16.63;12.27;;;4.50;99.90;;;;;;5082162;28;20032;-42
2023/01/24 02:02:22;;;;;;;18.58;13.45;;;4.50;99.90;;;;;;5080866;28;20032;-42
2023/01/24 02:04:52;;;;;;;18.98;13.93;;;4.50;99.90;;;;;;5081672;28;20035;-42
2023/01/24 02:07:27;;;;;;;18.80;14.40;;;4.50;99.90;;;;;;5080959;28;20024;-42
2023/01/24 02:09:54;;;;;;;19.98;14.50;;;4.50;99.90;;;;;;5081424;28;20043;-42
2023/01/24 02:12:28;;;;;;;17.63;13.05;;;4.40;99.90;;;;;;5080876;28;20551;-42
2023/01/24 02:17:46;;;;;;;15.20;11.95;;;4.40;99.90;;;;;;5082001;28;20375;-42
2023/01/24 02:20:30;;;;;;;16.67;12.57;;;4.40;99.90;;;;;;5081119;28;20020;-42
2023/01/24 02:23:13;;;;;;;16.73;12.73;;;4.40;99.90;;;;;;5081045;28;20058;-42
2023/01/24 02:25:47;;;;;;;17.50;13.20;;;4.40;99.90;;;;;;5081388;28;20085;-42
2023/01/24 02:28:13;;;;;;;17.83;12.73;;;4.40;99.90;;;;;;5080490;28;20028;-43
2023/01/24 02:30:38;;;;;;;15.82;12.32;;;4.30;99.90;;;;;;5081300;28;20040;-42
2023/01/24 02:33:19;;;;;;;17.38;13.32;;;4.30;99.90;;;;;;5081211;28;20048;-44
2023/01/24 02:35:46;;;;;;;17.40;13.52;;;4.30;99.90;;;;;;5080421;28;20056;-43
2023/01/24 02:38:19;;;;;;;19.02;14.20;;;4.30;99.90;;;;;;5080744;28;20153;-42
2023/01/24 02:40:47;;;;;;;20.40;15.52;;;4.30;99.90;;;;;;5081103;28;20020;-42
2023/01/24 02:43:14;;;;;;;19.45;14.13;;;4.30;99.90;;;;;;5080838;28;20024;-42
2023/01/24 02:45:39;;;;;;;22.35;15.98;;;4.30;99.90;;;;;;5081959;28;20592;-43
2023/01/24 02:48:05;;;;;;;20.45;15.30;;;4.30;99.90;;;;;;5081543;28;20060;-42
2023/01/24 02:53:29;;;;;;;20.90;15.75;;;4.20;99.90;;;;;;5081378;28;20608;-42
2023/01/24 02:58:39;;;;;;;18.88;14.27;;;4.20;99.90;;;;;;5081010;28;20042;-43
2023/01/24 03:01:04;;;;;;;22.55;15.20;;;4.20;99.90;;;;;;5080597;28;20028;-43
2023/01/24 03:03:30;;;;;;;20.58;14.35;;;4.20;99.90;;;;;;5080209;28;20735;-42
2023/01/24 03:05:58;;;;;;;20.48;14.50;;;4.20;99.90;;;;;;5081156;28;20828;-42
2023/01/24 03:08:26;;;;;;;19.00;13.82;;;4.20;99.90;;;;;;5080925;28;20418;-42
2023/01/24 03:10:52;;;;;;;20.80;15.52;;;4.20;99.90;;;;;;5080665;28;20040;-42
2023/01/24 03:35:11;;;;;;;21.85;16.75;;;4.00;99.90;;;;;;5078302;28;20155;-42
2023/01/24 03:40:21;;;;;;;22.98;17.13;;;4.00;99.90;;;;;;5078353;28;20651;-43
2023/01/24 03:42:47;;;;;;;24.40;16.05;;;4.00;99.90;;;;;;5080419;28;20032;-43
2023/01/24 03:45:22;;;;;;;22.45;16.33;;;4.00;99.90;;;;;;5078950;28;20028;-42
2023/01/24 03:47:56;;;;;;;21.75;16.02;;;4.00;99.90;;;;;;5079396;28;20055;-43
2023/01/24 03:53:13;;;;;;;21.60;16.10;;;4.10;99.90;;;;;;5081548;28;20122;-42
2023/01/24 03:55:39;;;;;;;21.20;16.08;;;4.00;99.90;;;;;;5083076;28;20055;-42
2023/01/24 03:58:06;;;;;;;20.25;15.00;;;4.10;99.90;;;;;;5082785;28;20034;-43
2023/01/24 04:00:33;;;;;;;19.85;14.75;;;4.10;99.90;;;;;;5082592;28;20016;-42
2023/01/24 04:02:59;;;;;;;22.25;16.80;;;4.10;99.90;;;;;;5082929;28;20016;-42
2023/01/24 04:05:25;;;;;;;21.95;16.83;;;4.10;99.90;;;;;;5082349;28;20035;-42
2023/01/24 04:07:56;;;;;;;24.83;17.42;;;4.10;99.90;;;;;;5083039;28;20032;-42
2023/01/24 04:10:21;;;;;;;23.25;17.05;;;4.10;99.90;;;;;;5083050;28;20399;-42
2023/01/24 04:12:48;;;;;;;21.80;17.00;;;4.10;99.90;;;;;;5083779;28;20027;-41
2023/01/24 04:15:20;;;;;;;23.23;16.85;;;4.10;99.90;;;;;;5082330;28;20483;-43
2023/01/24 04:17:46;;;;;;;;;;;4.10;99.90;;;;;;5084327;28;20031;-42
2023/01/24 04:20:12;;;;;;;22.08;15.70;;;4.10;99.90;;;;;;5083195;28;19908;-43
2023/01/24 04:22:38;;;;;;;22.77;16.88;;;4.10;99.90;;;;;;5083774;28;20056;-42
2023/01/24 04:25:04;;;;;;;23.02;16.73;;;4.10;99.90;;;;;;5083151;28;20116;-42
2023/01/24 04:27:30;;;;;;;24.40;17.77;;;4.00;99.90;;;;;;5084026;28;20027;-43
2023/01/24 04:29:55;;;;;;;21.63;15.65;;;4.10;99.90;;;;;;5082796;28;20028;-43
2023/01/24 04:32:21;;;;;;;22.75;16.42;;;4.00;99.90;;;;;;5083493;28;20036;-42
2023/01/24 04:34:46;;;;;;;22.10;15.82;;;4.10;99.90;;;;;;5082408;28;20469;-43
2023/01/24 04:37:12;;;;;;;21.75;15.95;;;4.10;99.90;;;;;;5083136;28;20035;-43
2023/01/24 04:39:37;;;;;;;19.70;14.65;;;4.10;99.90;;;;;;5083297;28;20035;-42
2023/01/24 04:42:03;;;;;;;21.45;15.55;;;4.10;99.90;;;;;;5081761;28;20123;-42
2023/01/24 04:44:28;;;;;;;21.45;16.15;;;4.10;99.90;;;;;;5082974;28;20020;-42
2023/01/24 04:46:54;;;;;;;23.67;17.50;;;4.10;99.90;;;;;;5082820;28;20034;-42
2023/01/24 04:49:19;;;;;;;25.00;17.65;;;4.10;99.90;;;;;;5081465;28;20034;-43
2023/01/24 04:51:49;;;;;;;25.98;18.90;;;4.00;99.90;;;;;;5083071;28;20047;-42
2023/01/24 04:54:15;;;;;;;27.05;18.70;;;4.00;99.90;;;;;;5082054;28;20021;-43
2023/01/24 04:56:41;;;;;;;27.85;19.48;;;3.90;99.90;;;;;;5082323;28;20069;-43
2023/01/24 04:59:07;;;;;;;27.27;19.52;;;3.90;99.90;;;;;;5082093;28;20020;-43
2023/01/24 05:01:32;;;;;;;25.73;18.95;;;3.90;99.90;;;;;;5082171;28;20043;-42
2023/01/24 05:03:59;;;;;;;29.88;20.23;;;3.90;99.90;;;;;;5081641;28;20101;-43
2023/01/24 05:06:29;;;;;;;27.90;20.52;;;3.90;99.90;;;;;;5082554;28;20380;-43
2023/01/24 05:08:55;;;;;;;28.05;20.10;;;3.90;99.90;;;;;;5082769;28;20024;-42
2023/01/24 05:11:22;;;;;;;29.73;21.48;;;3.80;99.90;;;;;;5081728;28;20036;-42
2023/01/24 05:13:48;;;;;;;29.02;21.08;;;3.80;99.90;;;;;;5082550;28;20024;-43
2023/01/24 05:16:14;;;;;;;27.27;19.75;;;3.80;99.90;;;;;;5081781;28;20028;-42
2023/01/24 05:18:39;;;;;;;28.55;20.80;;;3.70;99.90;;;;;;5081638;28;20103;-43
2023/01/24 05:21:06;;;;;;;28.27;19.80;;;3.70;99.90;;;;;;5081420;28;20110;-43
2023/01/24 05:23:32;;;;;;;28.33;20.92;;;3.70;99.90;;;;;;5082210;28;20756;-43
2023/01/24 05:26:01;;;;;;;28.10;19.77;;;3.70;99.90;;;;;;5081627;28;20024;-42
2023/01/24 05:28:27;;;;;;;28.33;19.98;;;3.70;99.90;;;;;;5082385;28;20484;-42
2023/01/24 05:30:58;;;;;;;27.27;19.95;;;3.70;99.90;;;;;;5081673;28;20693;-42
2023/01/24 05:33:23;;;;;;;27.95;20.02;;;3.70;99.90;;;;;;5082611;28;20020;-42
2023/01/24 05:35:55;;;;;;;29.20;20.88;;;3.70;99.90;;;;;;5081904;28;20054;-42
2023/01/24 05:38:21;;;;;;;30.42;20.48;;;3.70;99.90;;;;;;5081604;28;20051;-43
2023/01/24 05:40:46;;;;;;;29.77;20.45;;;3.70;99.90;;;;;;5083460;28;20109;-43
2023/01/24 05:43:12;;;;;;;27.80;19.38;;;3.70;99.90;;;;;;5081755;28;20098;-42
2023/01/24 05:45:37;;;;;;;27.35;19.52;;;3.70;99.90;;;;;;5082089;28;20483;-43
2023/01/24 05:48:03;;;;;;;26.30;19.05;;;3.70;99.90;;;;;;5081626;28;20685;-42
2023/01/24 05:50:28;;;;;;;28.17;19.42;;;3.70;99.90;;;;;;5082524;28;20039;-42
2023/01/24 05:52:54;;;;;;;28.40;18.83;;;3.70;99.90;;;;;;5081633;28;20024;-42
2023/01/24 05:55:19;;;;;;;24.48;17.20;;;3.70;99.90;;;;;;5081707;28;20040;-43
2023/01/24 05:57:45;;;;;;;25.85;19.15;;;3.70;99.90;;;;;;5082119;28;20042;-42
2023/01/24 06:00:11;;;;;;;26.77;19.17;;;3.70;99.90;;;;;;5080693;28;20169;-43
2023/01/24 06:02:36;;;;;;;28.45;19.65;;;3.70;99.90;;;;;;5082072;28;20828;-43
2023/01/24 06:05:02;;;;;;;27.13;18.80;;;3.70;99.90;;;;;;5081271;28;20056;-42
2023/01/24 06:07:28;;;;;;;28.05;18.60;;;3.70;99.90;;;;;;5081505;28;20119;-43
2023/01/24 06:09:53;;;;;;;27.25;18.58;;;3.70;99.90;;;;;;5082650;28;20042;-42
2023/01/24 06:12:19;;;;;;;25.40;17.83;;;3.80;99.90;;;;;;5081578;28;20055;-41
2023/01/24 06:14:44;;;;;;;23.98;17.38;;;3.80;99.90;;;;;;5081023;28;20016;-43
2023/01/24 06:17:10;;;;;;;25.15;16.90;;;3.80;99.90;;;;;;5081124;28;20451;-42
2023/01/24 06:19:35;;;;;;;23.52;17.08;;;3.80;99.90;;;;;;5081532;28;20035;-43
2023/01/24 06:22:29;;;;;;;23.63;17.17;;;3.80;99.90;;;;;;5080572;28;20028;-43
2023/01/24 06:24:55;;;;;;;25.75;18.05;;;3.80;99.90;;;;;;5076741;28;20086;-43
2023/01/24 06:27:21;;;;;;;24.33;17.90;;;3.80;99.90;;;;;;5080186;28;20027;-41
2023/01/24 06:29:46;;;;;;;27.50;19.30;;;3.70;99.90;;;;;;5081428;28;20824;-42
2023/01/24 06:32:53;;;;;;;27.05;19.50;;;3.70;99.90;;;;;;5080585;28;20032;-42
2023/01/24 06:35:28;;;;;;;27.38;18.42;;;3.70;99.90;;;;;;5068944;28;20118;-42
2023/01/24 06:37:53;;;;;;;23.48;17.30;;;3.70;99.90;;;;;;5081522;28;20028;-43
2023/01/24 06:40:25;;;;;;;22.77;16.73;;;3.70;99.90;;;;;;5081026;28;20028;-43
2023/01/24 06:42:52;;;;;;;23.83;17.27;;;3.70;99.90;;;;;;5080700;28;20028;-42
2023/01/24 06:45:18;;;;;;;23.92;16.77;;;3.70;99.90;;;;;;5080965;28;20490;-42
2023/01/24 06:47:44;;;;;;;27.10;18.63;;;3.70;99.90;;;;;;5082320;28;20471;-43
2023/01/24 06:50:21;;;;;;;28.23;20.42;;;3.70;99.90;;;;;;5080051;28;20058;-42
2023/01/24 06:52:48;;;;;;;27.52;19.52;;;3.70;99.90;;;;;;5081646;28;20085;-43
2023/01/24 06:55:14;;;;;;;28.60;19.60;;;3.70;99.90;;;;;;5080628;28;20027;-43
2023/01/24 06:57:39;;;;;;;28.63;18.50;;;3.70;99.90;;;;;;5080638;28;20832;-43
2023/01/24 07:00:06;;;;;;;27.92;19.02;;;3.70;99.90;;;;;;5080330;28;20131;-43
2023/01/24 07:02:31;;;;;;;28.92;21.10;;;3.70;99.90;;;;;;5080410;28;20024;-41
2023/01/24 07:04:57;;;;;;;28.30;20.00;;;3.60;99.90;;;;;;5080934;28;20421;-43
2023/01/24 07:07:22;;;;;;;29.15;20.85;;;3.60;99.90;;;;;;5080723;28;20024;-42
2023/01/24 07:09:48;;;;;;;30.38;20.98;;;3.60;99.90;;;;;;5081026;28;20533;-42
2023/01/24 07:12:13;;;;;;;29.48;20.85;;;3.60;99.90;;;;;;5079957;28;20040;-44
2023/01/24 07:14:39;;;;;;;30.17;21.27;;;3.50;99.90;;;;;;5084364;28;20032;-42
2023/01/24 07:17:05;;;;;;;27.58;19.02;;;3.50;99.90;;;;;;5079818;28;20028;-42
2023/01/24 07:19:31;;;;;;;29.60;20.55;;;3.50;99.90;;;;;;5080373;28;20028;-43
2023/01/24 07:21:56;;;;;;;26.00;19.33;;;3.50;99.90;;;;;;5077593;28;20024;-44
2023/01/24 07:24:28;;;;;;;33.00;21.65;;;3.50;99.90;;;;;;5079127;28;20383;-43
2023/01/24 07:26:54;;;;;;;29.08;20.15;;;3.50;99.90;;;;;;5083723;28;20030;-43
2023/01/24 07:29:20;;;;;;;27.77;19.38;;;3.50;99.90;;;;;;5083308;28;20183;-42
2023/01/24 07:31:48;;;;;;;27.50;19.30;;;3.50;99.90;;;;;;5083409;28;20566;-41
2023/01/24 07:34:15;;;;;;;26.52;19.35;;;3.50;99.90;;;;;;5083187;28;20135;-43
2023/01/24 07:36:45;;;;;;;29.27;20.75;;;3.50;99.90;;;;;;5083274;28;20476;-43
2023/01/24 07:39:10;;;;;;;28.70;20.55;;;3.50;99.90;;;;;;5083135;28;20035;-42
2023/01/24 07:41:38;;;;;;;30.58;21.20;;;3.60;99.90;;;;;;5082930;28;20903;-43
2023/01/24 07:44:05;;;;;;;29.08;20.20;;;3.50;99.90;;;;;;5082521;28;20056;-43
2023/01/24 07:46:32;;;;;;;33.22;22.73;;;3.60;99.90;;;;;;5083838;28;20031;-42
2023/01/24 07:48:58;;;;;;;30.38;22.25;;;3.50;99.90;;;;;;5083942;28;20020;-42
2023/01/24 07:51:23;;;;;;;30.02;21.55;;;3.50;99.90;;;;;;5083464;28;20032;-43
2023/01/24 07:53:49;;;;;;;32.05;21.55;;;3.50;99.90;;;;;;5095340;28;20494;-42
2023/01/24 07:56:18;;;;;;;32.53;22.75;;;3.50;99.90;;;;;;5083172;28;20349;-42
2023/01/24 07:58:44;;;;;;;29.30;21.73;;;3.50;99.90;;;;;;5083656;28;20054;-42
2023/01/24 08:01:14;;;;;;;30.73;22.70;;;3.50;99.90;;;;;;5082756;28;20070;-42
2023/01/24 08:03:40;;;;;;;30.88;21.48;;;3.50;99.90;;;;;;5083638;28;20123;-42
2023/01/24 08:06:06;;;;;;;28.58;20.02;;;3.50;99.90;;;;;;5082040;28;20030;-43
2023/01/24 08:08:31;;;;;;;29.48;20.58;;;3.50;99.90;;;;;;5083976;28;20027;-42
2023/01/24 08:10:57;;;;;;;29.98;21.63;;;3.50;99.90;;;;;;5082992;28;20802;-42
2023/01/24 08:13:22;;;;;;;29.10;20.85;;;3.60;99.90;;;;;;5082117;28;20038;-42
2023/01/24 08:15:48;;;;;;;30.73;21.85;;;3.50;99.90;;;;;;5083580;28;20039;-42
2023/01/24 08:18:13;;;;;;;29.88;22.17;;;3.50;99.90;;;;;;5083693;28;20024;-43
2023/01/24 08:20:39;;;;;;;28.42;20.65;;;3.50;99.90;;;;;;5083284;28;20552;-42
2023/01/24 08:23:04;;;;;;;28.70;19.88;;;3.50;99.90;;;;;;5083215;28;20038;-43
2023/01/24 08:25:31;;;;;;;29.52;20.63;;;3.50;99.90;;;;;;5084106;28;20044;-42
2023/01/24 08:27:57;;;;;;;27.73;18.80;;;3.50;99.90;;;;;;5082504;28;20028;-43
2023/01/24 08:30:23;;;;;;;26.05;19.30;;;3.50;99.90;;;;;;5083010;28;20074;-43
2023/01/24 08:32:48;;;;;;;25.50;18.77;;;3.50;99.90;;;;;;5083016;28;20690;-43
2023/01/24 08:35:14;;;;;;;26.90;19.98;;;3.50;99.90;;;;;;5081470;28;20055;-43
2023/01/24 08:37:40;;;;;;;25.90;19.20;;;3.50;99.90;;;;;;5082626;28;20036;-42
2023/01/24 08:40:06;;;;;;;23.95;17.90;;;3.60;99.90;;;;;;5081901;28;20075;-43
2023/01/24 08:42:31;;;;;;;26.67;19.92;;;3.60;99.90;;;;;;5081679;28;20027;-42
2023/01/24 08:44:57;;;;;;;25.90;19.55;;;3.60;99.90;;;;;;5082598;28;20024;-42
2023/01/24 08:47:23;;;;;;;24.75;19.38;;;3.60;99.90;;;;;;5082733;28;20027;-42
2023/01/24 08:49:48;;;;;;;27.77;20.77;;;3.60;99.90;;;;;;5082681;28;20451;-42
2023/01/24 08:52:14;;;;;;;26.83;20.30;;;3.60;99.90;;;;;;5081461;28;20041;-43
2023/01/24 08:54:39;;;;;;;30.73;20.92;;;3.60;99.90;;;;;;5082759;28;20035;-43
2023/01/24 08:57:07;;;;;;;26.55;18.92;;;3.70;99.90;;;;;;5081832;28;20649;-42
2023/01/24 08:59:33;;;;;;;25.23;19.50;;;3.70;99.90;;;;;;5081715;28;20464;-43
2023/01/24 09:01:58;;;;;;;26.73;19.92;;;3.70;99.90;;;;;;5081891;28;20031;-42
2023/01/24 09:04:26;;;;;;;27.25;20.67;;;3.70;99.90;;;;;;5082061;28;20024;-42
2023/01/24 09:06:52;;;;;;;31.63;22.63;;;3.70;99.90;;;;;;5083469;28;20458;-43
2023/01/24 09:09:18;;;;;;;30.13;20.70;;;3.70;99.90;;;;;;5081681;28;20754;-44
2023/01/24 09:11:43;;;;;;;27.92;20.60;;;3.70;99.90;;;;;;5082713;28;20042;-43
2023/01/24 09:14:09;;;;;;;26.35;19.63;;;3.70;99.90;;;;;;5081761;28;20365;-42
2023/01/24 09:16:34;;;;;;;26.75;20.17;;;3.70;99.90;;;;;;5082098;28;20032;-42
2023/01/24 09:19:00;;;;;;;28.35;20.08;;;3.70;99.90;;;;;;5082059;28;20027;-43
2023/01/24 09:21:25;;;;;;;27.30;20.50;;;3.70;99.90;;;;;;5082050;28;20024;-42
2023/01/24 09:23:54;;;;;;;25.33;18.60;;;3.60;99.90;;;;;;5081589;28;20149;-43
2023/01/24 09:26:20;;;;;;;26.40;19.02;;;3.70;99.90;;;;;;5081738;28;20055;-43
2023/01/24 09:28:45;;;;;;;27.95;19.52;;;3.70;99.90;;;;;;5082458;28;20103;-43
2023/01/24 09:31:12;;;;;;;26.75;19.95;;;3.70;99.90;;;;;;5081054;28;20032;-43
2023/01/24 09:33:38;;;;;;;27.67;20.20;;;3.70;99.90;;;;;;5081428;28;20699;-43
2023/01/24 09:36:04;;;;;;;30.02;21.73;;;3.60;99.90;;;;;;5081417;28;20038;-44
2023/01/24 09:38:31;;;;;;;26.58;19.10;;;3.60;99.90;;;;;;5082089;28;20567;-43
2023/01/24 09:41:13;;;;;;;26.17;20.00;;;3.60;99.90;;;;;;5081365;28;20387;-43
2023/01/24 09:43:42;;;;;;;24.08;17.65;;;3.60;99.90;;;;;;5081119;28;20584;-43
2023/01/24 09:46:32;;;;;;;24.67;18.25;;;3.60;99.90;;;;;;5078993;28;20024;-43
2023/01/24 09:49:06;;;;;;;27.67;20.42;;;3.60;99.90;;;;;;5080462;28;20036;-43
2023/01/24 09:51:36;;;;;;;25.58;19.90;;;3.60;99.90;;;;;;5078644;28;20525;-43
2023/01/24 09:54:05;;;;;;;30.67;21.60;;;3.60;99.90;;;;;;5080622;28;20082;-43
2023/01/24 09:56:41;;;;;;;28.95;20.73;;;3.60;99.90;;;;;;5081819;28;20040;-43
2023/01/24 09:59:18;;;;;;;29.00;20.70;;;3.60;99.90;;;;;;5080273;28;20048;-43
2023/01/24 10:01:45;;;;;;;25.88;19.17;;;3.60;99.90;;;;;;5081608;28;20105;-43
2023/01/24 10:04:29;;;;;;;28.25;20.10;;;3.60;99.90;;;;;;5080622;28;20049;-43
2023/01/24 10:07:12;;;;;;;27.30;19.48;;;3.60;99.90;;;;;;5079350;28;20089;-43
2023/01/24 10:09:41;;;;;;;27.85;20.80;;;3.60;99.90;;;;;;5080863;28;20028;-43
2023/01/24 10:12:37;;;;;;;25.90;19.73;;;3.60;99.90;;;;;;5075861;28;20088;-43
2023/01/24 10:15:38;;;;;;;25.80;19.27;;;3.70;99.90;;;;;;5080945;28;20120;-42
2023/01/24 10:18:13;;;;;;;27.35;20.25;;;3.70;99.90;;;;;;5072680;28;20036;-42
2023/01/24 10:21:35;;;;;;;30.70;22.30;;;3.60;99.90;;;;;;5081090;28;20027;-42
2023/01/24 10:24:08;;;;;;;29.77;21.15;;;3.60;99.90;;;;;;5017413;28;20033;-42
2023/01/24 10:26:41;;;;;;;28.80;20.50;;;3.60;99.90;;;;;;5069816;28;20107;-44
2023/01/24 10:29:30;;;;;;;27.50;20.13;;;3.60;99.90;;;;;;5080688;28;20024;-43
2023/01/24 10:32:01;;;;;;;30.15;21.20;;;3.60;99.90;;;;;;5081130;28;20415;-44
2023/01/24 10:34:43;;;;;;;25.20;19.58;;;3.60;99.90;;;;;;5079889;28;20048;-42
2023/01/24 10:37:15;;;;;;;29.25;20.73;;;3.70;99.90;;;;;;5081023;28;20036;-42
2023/01/24 10:39:41;;;;;;;26.55;19.17;;;3.70;99.90;;;;;;5081933;28;20027;-43
2023/01/24 10:42:19;;;;;;;24.15;17.95;;;3.60;99.90;;;;;;5079799;28;20027;-42
2023/01/24 10:44:47;;;;;;;26.02;19.73;;;3.70;99.90;;;;;;5080979;28;20529;-43
2023/01/24 10:47:36;;;;;;;27.80;20.35;;;3.70;99.90;;;;;;5080228;28;20028;-43
2023/01/24 10:50:06;;;;;;;27.45;19.25;;;3.70;99.90;;;;;;5080991;28;20024;-42
2023/01/24 10:52:33;;;;;;;27.95;21.50;;;3.70;99.90;;;;;;5081179;28;20050;-43
2023/01/24 10:55:01;;;;;;;28.15;21.20;;;3.70;99.90;;;;;;5080058;28;20023;-44
2023/01/24 10:57:43;;;;;;;27.50;20.67;;;3.70;99.90;;;;;;5080601;28;20027;-43
2023/01/24 11:00:14;;;;;;;23.45;18.45;;;3.80;99.90;;;;;;5082424;28;20094;-43
2023/01/24 11:02:40;;;;;;;25.33;19.20;;;3.80;99.90;;;;;;5084003;28;20037;-43
2023/01/24 11:05:12;;;;;;;23.55;18.50;;;3.80;99.90;;;;;;5084086;28;20569;-42
2023/01/24 11:07:43;;;;;;;23.48;18.83;;;3.80;99.90;;;;;;5085414;28;20028;-43
2023/01/24 11:10:22;;;;;;;24.15;17.17;;;3.80;99.90;;;;;;5084266;28;20024;-42
2023/01/24 11:12:51;;;;;;;24.48;17.17;;;3.80;99.90;;;;;;5084203;28;20480;-43
2023/01/24 11:15:22;;;;;;;22.02;16.55;;;3.90;99.90;;;;;;5084216;28;20024;-44
2023/01/24 11:17:54;;;;;;;21.75;16.55;;;3.90;99.90;;;;;;5084094;28;20026;-41
2023/01/24 11:20:33;;;;;;;22.52;16.25;;;3.90;99.90;;;;;;5085472;28;20931;-43
2023/01/24 11:23:20;;;;;;;22.95;17.35;;;4.00;99.90;;;;;;5084968;28;20016;-43
2023/01/24 11:26:02;;;;;;;23.88;17.40;;;4.00;99.90;;;;;;5084205;28;20054;-43
2023/01/24 11:28:29;;;;;;;25.95;18.42;;;4.00;99.90;;;;;;5084729;28;20154;-43
2023/01/24 11:30:58;;;;;;;25.92;18.38;;;4.10;99.90;;;;;;5084017;28;20048;-42
2023/01/24 11:33:34;;;;;;;24.50;17.42;;;4.10;99.90;;;;;;5083737;28;20028;-42
2023/01/24 11:36:07;;;;;;;22.88;17.80;;;4.20;99.90;;;;;;5083850;28;20082;-43
2023/01/24 11:38:40;;;;;;;22.25;16.00;;;4.20;99.90;;;;;;5083555;28;20020;-43
2023/01/24 11:41:36;;;;;;;23.48;16.52;;;4.20;99.90;;;;;;5083948;28;20042;-42
2023/01/24 11:44:01;;;;;;;21.85;15.90;;;4.20;99.90;;;;;;5082375;28;20937;-43
2023/01/24 11:46:56;;;;;;;20.30;15.35;;;4.20;99.90;;;;;;5083725;28;20028;-43
2023/01/24 11:49:54;;;;;;;20.98;16.02;;;4.20;99.90;;;;;;5083518;28;20020;-43
2023/01/24 11:52:34;;;;;;;21.85;16.70;;;4.20;99.90;;;;;;5053732;28;20050;-43
2023/01/24 11:55:22;;;;;;;22.70;15.98;;;4.20;99.90;;;;;;5081384;28;20566;-43
2023/01/24 11:58:09;;;;;;;19.77;15.35;;;4.20;99.90;;;;;;5083719;28;20028;-43
2023/01/24 12:00:45;;;;;;;17.73;14.15;;;4.20;99.90;;;;;;5083356;28;20109;-43
2023/01/24 12:03:40;;;;;;;18.17;13.98;;;4.30;99.90;;;;;;5084032;28;20028;-43
2023/01/24 12:06:16;;;;;;;18.83;14.13;;;4.30;99.90;;;;;;5081686;28;20097;-42
2023/01/24 12:08:59;;;;;;;18.58;13.20;;;4.30;99.90;;;;;;5084050;28;20043;-43
2023/01/24 12:11:42;;;;;;;19.00;14.55;;;4.30;99.90;;;;;;5082540;28;20061;-42
2023/01/24 12:14:51;;;;;;;17.63;14.25;;;4.30;99.90;;;;;;5082710;28;20065;-43
2023/01/24 12:17:44;;;;;;;17.60;13.95;;;4.30;99.90;;;;;;5076867;28;20531;-42
2023/01/24 12:20:34;;;;;;;16.60;13.23;;;4.30;99.90;;;;;;5082818;28;20138;-42
2023/01/24 12:23:18;;;;;;;16.80;13.88;;;4.20;99.90;;;;;;5082548;28;20089;-42
2023/01/24 12:25:46;;;;;;;18.58;14.27;;;4.20;99.90;;;;;;5084671;28;20020;-44
2023/01/24 12:28:25;;;;;;;17.17;13.57;;;4.20;99.90;;;;;;5081755;28;20059;-44
2023/01/24 12:30:56;;;;;;;17.70;14.15;;;4.30;99.90;;;;;;5083526;28;20062;-43
2023/01/24 12:33:43;;;;;;;16.55;13.07;;;4.30;99.90;;;;;;5082918;28;20028;-42
2023/01/24 12:36:25;;;;;;;16.05;13.57;;;4.30;99.90;;;;;;5082493;28;20055;-43
2023/01/24 12:38:55;;;;;;;16.40;13.17;;;4.30;99.90;;;;;;5062754;28;20468;-43
2023/01/24 12:41:31;;;;;;;15.90;12.85;;;4.30;99.90;;;;;;5077285;28;20039;-43
2023/01/24 12:43:59;;;;;;;15.38;12.30;;;4.30;99.90;;;;;;5063016;28;20477;-43
2023/01/24 12:46:47;;;;;;;17.65;13.98;;;4.40;99.90;;;;;;5077806;28;20065;-43
2023/01/24 12:49:44;;;;;;;18.48;13.63;;;4.40;99.90;;;;;;5061231;28;20137;-43
2023/01/24 12:52:23;;;;;;;17.00;13.32;;;4.30;99.90;;;;;;5081706;28;20048;-44
2023/01/24 12:54:56;;;;;;;16.30;13.15;;;4.30;99.90;;;;;;5082855;28;20466;-43
2023/01/24 12:57:31;;;;;;;;;;;4.30;99.90;;;;;;5082813;28;20039;-43
2023/01/24 12:59:57;;;;;;;19.33;14.30;;;4.30;99.90;;;;;;5083195;28;19908;-42
2023/01/24 13:02:38;;;;;;;16.95;13.93;;;4.20;99.90;;;;;;5081366;28;20016;-42
2023/01/24 13:05:13;;;;;;;16.83;13.90;;;4.20;99.90;;;;;;5082988;28;20032;-43
2023/01/24 13:07:41;;;;;;;16.25;13.27;;;4.10;99.90;;;;;;5082735;28;20388;-43
2023/01/24 13:10:10;;;;;;;17.75;13.57;;;4.10;99.90;;;;;;5082483;28;20137;-42
2023/01/24 13:12:35;;;;;;;16.75;13.05;;;4.10;99.90;;;;;;5083218;28;20040;-43
2023/01/24 13:15:13;;;;;;;16.05;12.80;;;4.10;99.90;;;;;;5082235;28;20020;-43
2023/01/24 13:17:55;;;;;;;18.38;13.50;;;4.10;99.90;;;;;;5082576;28;20411;-42
2023/01/24 13:20:48;;;;;;;16.65;12.85;;;4.10;99.90;;;;;;5062198;28;20406;-43
2023/01/24 13:23:36;;;;;;;15.70;11.98;;;4.10;99.90;;;;;;5080013;28;20534;-43
2023/01/24 13:26:12;;;;;;;15.30;11.55;;;4.20;99.90;;;;;;5081525;28;20028;-42
2023/01/24 13:29:11;;;;;;;14.00;11.63;;;4.10;99.90;;;;;;5082137;28;20448;-43
2023/01/24 13:31:58;;;;;;;14.13;11.85;;;4.20;99.90;;;;;;5081806;28;20043;-43